Terminal Aerodrome Forecast
Issued by NWS Cleveland, OH

Home | Current Version | Previous Version | Text Only | Print | Product List | Glossary Off
Versions: 1 2 3 4 5 6 7 8 9 10 11 12 13 14 15

708
FTUS41 KCLE 062058 AAA
TAFTOL
TAF AMD
KTOL 062058Z 0621/0718 06008KT 5SM -RA OVC025
      TEMPO 0621/0623 2SM BR OVC005
     FM062300 27012KT P6SM OVC025
     FM071200 25010KT P6SM SCT025 BKN150=

USA.gov is the U.S. government's official web portal to all federal, state and local government web resources and services.